Time;durP1;ratioP1;P1;durP2;ratioP2;P2;SDS_P1;SDS_P2;PMS_P1;PMS_P2;Temp;Humidity;BMP_temperature;BMP_pressure;BME280_temperature;BME280_humidity;BME280_pressure;Samples;Min_cycle;Max_cycle;Signal;HPM_P1;HPM_P2
2022/04/25 00:02:15;;;;;;;0.10;0.10;;;;;;;20.48;40.98;100414.94;5116362;28;20466;-26
2022/04/25 00:04:41;;;;;;;0.10;0.10;;;;;;;20.48;41.00;100406.63;5118035;28;20047;-26
2022/04/25 00:07:07;;;;;;;0.10;0.10;;;;;;;20.48;41.24;100403.88;5115898;28;20481;-26
2022/04/25 00:09:33;;;;;;;0.20;0.20;;;;;;;20.48;41.39;100387.28;5121262;28;20047;-26
2022/04/25 00:11:58;;;;;;;0.10;0.10;;;;;;;20.48;41.11;100380.94;5121820;28;20040;-26
2022/04/25 00:14:24;;;;;;;0.10;0.10;;;;;;;20.48;41.09;100378.16;5123361;28;20046;-27
2022/04/25 00:16:55;;;;;;;0.20;0.20;;;;;;;20.48;41.15;100378.16;5118828;28;20058;-27
2022/04/25 00:19:23;;;;;;;0.10;0.10;;;;;;;20.48;40.97;100364.34;5118228;28;20044;-27
2022/04/25 00:21:51;;;;;;;0.20;0.20;;;;;;;20.47;41.19;100360.72;5122301;28;20086;-27
2022/04/25 00:24:17;;;;;;;0.10;0.10;;;;;;;20.48;41.22;100353.28;5120356;28;20124;-26
2022/04/25 00:26:43;;;;;;;0.20;0.20;;;;;;;20.48;41.26;100359.63;5123045;28;20486;-27
2022/04/25 00:29:09;;;;;;;0.10;0.10;;;;;;;20.49;41.11;100363.19;5122624;28;20051;-27
2022/04/25 00:31:34;;;;;;;0.20;0.20;;;;;;;20.47;40.98;100344.13;5117963;28;20481;-27
2022/04/25 00:34:00;;;;;;;0.10;0.10;;;;;;;20.47;40.92;100344.13;5116941;28;20036;-27
2022/04/25 00:36:26;;;;;;;0.20;0.20;;;;;;;20.48;41.08;100342.22;5124208;28;20131;-26
2022/04/25 00:38:51;;;;;;;0.13;0.13;;;;;;;20.48;40.78;100333.91;5114120;28;20104;-27
2022/04/25 00:41:17;;;;;;;0.13;0.13;;;;;;;20.47;40.96;100321.19;5116629;28;20055;-27
2022/04/25 00:43:43;;;;;;;0.20;0.20;;;;;;;20.47;40.91;100322.00;5115148;27;20039;-27
2022/04/25 00:46:20;;;;;;;0.10;0.10;;;;;;;20.46;41.09;100323.09;5119153;28;20044;-26
2022/04/25 00:48:46;;;;;;;0.10;0.10;;;;;;;20.46;41.24;100312.03;5123545;28;20261;-26
2022/04/25 00:51:12;;;;;;;0.20;0.20;;;;;;;20.46;40.69;100319.50;5124505;28;20133;-26
2022/04/25 00:53:38;;;;;;;0.10;0.10;;;;;;;20.45;41.16;100329.75;5122671;28;20047;-27
2022/04/25 00:56:04;;;;;;;0.20;0.20;;;;;;;20.46;40.85;100334.16;5126611;28;20039;-28
2022/04/25 00:58:30;;;;;;;0.20;0.20;;;;;;;20.45;41.02;100345.53;5121935;28;20081;-26
2022/04/25 01:00:56;;;;;;;0.17;0.17;;;;;;;20.46;41.00;100352.69;5124977;28;20051;-27
2022/04/25 01:03:22;;;;;;;0.20;0.20;;;;;;;20.44;41.18;100353.03;5123193;28;20134;-27
2022/04/25 01:05:47;;;;;;;0.20;0.20;;;;;;;20.47;40.92;100362.66;5124008;28;20395;-27
2022/04/25 01:08:13;;;;;;;0.20;0.20;;;;;;;20.45;40.95;100359.38;5120969;28;20047;-27
2022/04/25 01:10:41;;;;;;;0.20;0.20;;;;;;;20.45;40.90;100353.84;5123586;28;20039;-27
2022/04/25 01:13:07;;;;;;;0.10;0.10;;;;;;;20.44;40.87;100355.78;5120242;28;20122;-27
2022/04/25 01:15:34;;;;;;;0.10;0.10;;;;;;;20.44;40.79;100349.44;5119171;28;20496;-27
2022/04/25 01:17:59;;;;;;;0.17;0.17;;;;;;;20.43;40.92;100351.38;5125805;28;20087;-27
2022/04/25 01:20:25;;;;;;;0.20;0.20;;;;;;;20.44;41.08;100358.56;5118706;28;20044;-27
2022/04/25 01:22:55;;;;;;;0.10;0.10;;;;;;;20.44;41.16;100350.25;5123198;27;20051;-26
2022/04/25 01:28:07;;;;;;;0.20;0.20;;;;;;;20.43;41.07;100334.78;5112212;28;20468;-27
2022/04/25 01:30:32;;;;;;;0.20;0.20;;;;;;;20.43;41.06;100332.03;5121110;28;20410;-27
2022/04/25 01:32:59;;;;;;;0.20;0.20;;;;;;;20.42;41.21;100333.16;5120116;28;20039;-27
2022/04/25 01:35:24;;;;;;;0.13;0.13;;;;;;;20.42;41.04;100338.69;5125890;28;20541;-27
2022/04/25 01:37:50;;;;;;;0.10;0.10;;;;;;;20.43;40.81;100353.34;5121619;28;20096;-27
2022/04/25 01:40:16;;;;;;;0.20;0.20;;;;;;;20.42;41.17;100346.97;5123760;28;20105;-27
2022/04/25 01:42:42;;;;;;;0.20;0.20;;;;;;;20.42;41.06;100346.97;5119140;28;20278;-27
2022/04/25 01:45:08;;;;;;;0.20;0.20;;;;;;;20.42;41.06;100344.22;5124097;28;20071;-26
2022/04/25 01:47:33;;;;;;;0.20;0.20;;;;;;;20.42;41.03;100338.69;5122335;28;20082;-26
2022/04/25 01:49:59;;;;;;;0.10;0.10;;;;;;;20.43;40.95;100339.50;5125523;28;20127;-26
2022/04/25 01:52:30;;;;;;;0.17;0.17;;;;;;;20.42;40.69;100340.59;5119924;28;20035;-26
2022/04/25 01:54:57;;;;;;;0.20;0.20;;;;;;;20.43;41.09;100340.31;5119220;28;20078;-26
2022/04/25 01:57:23;;;;;;;0.20;0.20;;;;;;;20.43;41.00;100331.19;5125761;27;20070;-27
2022/04/25 01:59:48;;;;;;;0.20;0.20;;;;;;;20.41;40.87;100337.03;5120148;28;20044;-26
2022/04/25 02:02:14;;;;;;;0.20;0.20;;;;;;;20.42;40.73;100337.84;5122342;28;20040;-27
2022/04/25 02:04:41;;;;;;;0.10;0.10;;;;;;;20.41;41.06;100337.03;5124024;28;20043;-27
2022/04/25 02:07:08;;;;;;;0.20;0.20;;;;;;;20.41;41.07;100334.25;5118097;28;20076;-27
2022/04/25 02:09:34;;;;;;;0.20;0.20;;;;;;;20.40;40.87;100321.56;5123396;28;20059;-27
2022/04/25 02:12:00;;;;;;;0.10;0.10;;;;;;;20.41;40.71;100339.78;5122534;28;20500;-27
2022/04/25 02:14:29;;;;;;;0.20;0.20;;;;;;;20.41;41.05;100333.44;5123402;28;20039;-26
2022/04/25 02:16:58;;;;;;;0.15;0.15;;;;;;;20.40;40.89;100337.34;5125734;28;20047;-26
2022/04/25 02:19:24;;;;;;;;;;;;;;;20.40;41.20;100331.81;5125096;28;20086;-27
2022/04/25 02:21:50;;;;;;;0.13;0.13;;;;;;;20.39;40.83;100339.28;5125974;28;19958;-27
2022/04/25 02:24:16;;;;;;;0.20;0.20;;;;;;;20.39;41.05;100347.56;5126536;27;20039;-27
2022/04/25 02:26:41;;;;;;;0.10;0.10;;;;;;;20.39;41.09;100349.53;5121149;28;20039;-26
2022/04/25 02:29:07;;;;;;;0.20;0.20;;;;;;;20.39;40.95;100352.28;5127825;28;20052;-26
2022/04/25 02:31:33;;;;;;;0.10;0.10;;;;;;;20.40;41.06;100359.47;5120612;28;20042;-27
2022/04/25 02:33:58;;;;;;;0.20;0.20;;;;;;;20.39;41.02;100363.34;5122627;28;20045;-27
2022/04/25 02:36:24;;;;;;;0.20;0.20;;;;;;;20.39;40.98;100366.94;5125973;28;20042;-26
2022/04/25 02:38:50;;;;;;;0.10;0.10;;;;;;;20.39;41.15;100357.81;5116800;28;20442;-27
2022/04/25 02:41:16;;;;;;;0.10;0.10;;;;;;;20.39;41.04;100357.81;5120691;28;20130;-27
2022/04/25 02:43:43;;;;;;;0.20;0.20;;;;;;;20.39;41.07;100364.16;5123228;28;20057;-27
2022/04/25 02:46:11;;;;;;;0.20;0.20;;;;;;;20.39;40.82;100369.69;5125953;28;20074;-27
2022/04/25 02:48:37;;;;;;;;;;;;;;;20.39;41.05;100366.13;5121524;28;20185;-28
2022/04/25 02:51:04;;;;;;;0.20;0.20;;;;;;;20.38;41.08;100365.31;5120919;28;20008;-26
2022/04/25 02:53:31;;;;;;;0.20;0.20;;;;;;;20.37;40.85;100371.13;5123412;28;20039;-27
2022/04/25 02:55:56;;;;;;;0.20;0.20;;;;;;;20.38;40.95;100372.75;5122324;28;20097;-26
2022/04/25 02:58:23;;;;;;;0.10;0.10;;;;;;;20.38;40.76;100372.75;5123051;28;20063;-26
2022/04/25 03:00:49;;;;;;;0.20;0.20;;;;;;;20.38;40.89;100379.13;5117096;28;20079;-26
2022/04/25 03:03:16;;;;;;;0.20;0.20;;;;;;;20.38;40.89;100370.84;5120707;28;20063;-27
2022/04/25 03:05:43;;;;;;;0.10;0.10;;;;;;;20.37;40.87;100369.16;5121558;27;20085;-26
2022/04/25 03:08:11;;;;;;;0.13;0.13;;;;;;;20.38;40.91;100365.31;5119060;28;20097;-27
2022/04/25 03:10:37;;;;;;;0.20;0.20;;;;;;;20.38;41.07;100370.00;5121838;28;20069;-27
2022/04/25 03:13:06;;;;;;;0.20;0.20;;;;;;;20.39;41.07;100363.34;5125288;28;20081;-26
2022/04/25 03:15:33;;;;;;;0.17;0.17;;;;;;;20.38;41.04;100364.47;5119433;28;20087;-26
2022/04/25 03:17:59;;;;;;;0.10;0.10;;;;;;;20.38;40.96;100365.31;5118552;28;20126;-26
2022/04/25 03:20:25;;;;;;;0.10;0.10;;;;;;;20.37;41.04;100366.41;5122794;28;20073;-26
2022/04/25 03:22:51;;;;;;;0.10;0.10;;;;;;;20.37;40.76;100366.41;5119712;28;20043;-26
2022/04/25 03:25:16;;;;;;;0.20;0.20;;;;;;;20.37;40.91;100360.88;5122767;28;20131;-26
2022/04/25 03:27:42;;;;;;;0.20;0.20;;;;;;;20.38;40.91;100367.22;5123214;28;20057;-27
2022/04/25 03:30:08;;;;;;;0.20;0.20;;;;;;;20.38;40.87;100375.53;5123440;28;20057;-27
2022/04/25 03:32:34;;;;;;;0.20;0.20;;;;;;;20.37;40.89;100380.22;5122651;28;20081;-27
2022/04/25 03:35:03;;;;;;;0.20;0.20;;;;;;;20.37;40.75;100391.28;5121327;28;20047;-27
2022/04/25 03:37:30;;;;;;;0.15;0.15;;;;;;;20.37;40.87;100388.53;5129671;28;20501;-27
2022/04/25 03:39:59;;;;;;;0.20;0.20;;;;;;;20.37;40.88;100399.59;5118799;28;20490;-26
2022/04/25 03:42:25;;;;;;;0.20;0.20;;;;;;;20.37;40.84;100396.00;5118934;28;20071;-27
2022/04/25 03:44:51;;;;;;;0.20;0.20;;;;;;;20.36;40.85;100409.00;5126052;28;20074;-27
2022/04/25 03:47:16;;;;;;;0.20;0.20;;;;;;;20.37;41.10;100402.34;5122528;28;20043;-26
2022/04/25 03:49:43;;;;;;;0.20;0.20;;;;;;;20.36;40.85;100409.00;5120043;28;20053;-27
2022/04/25 03:52:09;;;;;;;0.20;0.20;;;;;;;20.37;40.94;100412.59;5118215;28;20531;-27
2022/04/25 03:57:20;;;;;;;0.10;0.10;;;;;;;20.36;40.77;100405.44;5105370;28;20143;-27
2022/04/25 03:59:46;;;;;;;0.20;0.20;;;;;;;20.36;40.78;100419.25;5117595;28;20043;-27
2022/04/25 04:02:11;;;;;;;0.10;0.10;;;;;;;20.36;40.86;100417.31;5123622;28;20047;-27
2022/04/25 04:04:37;;;;;;;0.20;0.20;;;;;;;20.36;41.08;100413.72;5122528;27;20043;-27
2022/04/25 04:07:03;;;;;;;0.15;0.15;;;;;;;20.36;41.20;100416.50;5119110;28;20047;-27
2022/04/25 04:10:00;;;;;;;0.10;0.10;;;;;;;20.36;40.80;100422.84;5116792;28;20100;-27
2022/04/25 04:12:16;;;;;;;0.20;0.20;;;;;;;20.35;40.82;100426.75;5108673;28;20457;-27
2022/04/25 04:14:42;;;;;;;0.20;0.20;;;;;;;20.36;40.94;100424.78;5121956;28;20142;-27
2022/04/25 04:17:08;;;;;;;0.20;0.20;;;;;;;20.34;41.03;100422.34;5119514;28;20070;-28
2022/04/25 04:19:35;;;;;;;0.20;0.20;;;;;;;20.35;41.11;100425.91;5099787;28;20081;-27
2022/04/25 04:22:02;;;;;;;0.10;0.10;;;;;;;20.35;40.90;100436.97;5128816;28;20126;-27
2022/04/25 04:24:28;;;;;;;0.20;0.20;;;;;;;20.35;41.02;100425.91;5126055;28;20071;-27
2022/04/25 04:26:56;;;;;;;0.10;0.10;;;;;;;20.35;41.18;100434.22;5127778;28;20077;-26
2022/04/25 04:29:22;;;;;;;0.10;0.10;;;;;;;20.35;41.03;100429.50;5127190;28;20458;-27
2022/04/25 04:31:48;;;;;;;0.10;0.10;;;;;;;20.34;41.04;100430.63;5120481;28;20086;-27
2022/04/25 04:34:14;;;;;;;0.10;0.10;;;;;;;20.35;41.11;100431.44;5124061;28;20535;-27
2022/04/25 04:36:40;;;;;;;0.10;0.10;;;;;;;20.35;41.07;100436.97;5122742;28;20039;-28
2022/04/25 04:39:05;;;;;;;0.20;0.20;;;;;;;20.33;40.78;100434.50;5118428;28;20058;-27
2022/04/25 04:41:31;;;;;;;0.20;0.20;;;;;;;20.35;40.86;100439.75;5124414;28;20055;-27
2022/04/25 04:43:57;;;;;;;0.10;0.10;;;;;;;20.34;40.90;100438.94;5126666;28;20084;-27
2022/04/25 04:46:24;;;;;;;0.10;0.10;;;;;;;20.33;41.16;100431.72;5121993;28;20155;-27
2022/04/25 04:48:50;;;;;;;0.20;0.20;;;;;;;20.34;40.78;100436.16;5121613;28;20454;-27
2022/04/25 04:51:16;;;;;;;0.20;0.20;;;;;;;20.34;40.92;100436.16;5123370;28;20039;-27
2022/04/25 04:53:42;;;;;;;0.20;0.20;;;;;;;20.34;41.08;100430.63;5121128;28;20263;-27
2022/04/25 04:56:08;;;;;;;0.20;0.20;;;;;;;20.35;40.98;100448.03;5122371;28;20043;-27
2022/04/25 04:58:38;;;;;;;0.20;0.20;;;;;;;20.35;40.90;100445.28;5104612;28;20043;-27
2022/04/25 05:01:04;;;;;;;0.20;0.20;;;;;;;20.34;40.91;100444.47;5127545;28;20039;-27
2022/04/25 05:03:31;;;;;;;0.10;0.10;;;;;;;20.34;41.07;100443.66;5123023;28;20058;-26
2022/04/25 05:05:57;;;;;;;0.13;0.13;;;;;;;20.33;40.92;100439.22;5125989;27;20043;-26
2022/04/25 05:08:22;;;;;;;0.10;0.10;;;;;;;20.34;40.91;100446.41;5125890;28;20051;-27
2022/04/25 05:10:48;;;;;;;0.20;0.20;;;;;;;20.32;40.94;100441.16;5126416;28;20055;-27
2022/04/25 05:13:15;;;;;;;0.20;0.20;;;;;;;20.33;40.88;100445.56;5127619;28;20050;-27
2022/04/25 05:15:41;;;;;;;0.20;0.20;;;;;;;20.34;41.07;100449.19;5120196;28;20835;-27
2022/04/25 05:18:06;;;;;;;0.20;0.20;;;;;;;20.33;41.10;100453.03;5121124;28;20091;-27
2022/04/25 05:20:32;;;;;;;0.20;0.20;;;;;;;20.34;40.82;100454.72;5127383;28;20065;-27
2022/04/25 05:22:57;;;;;;;0.10;0.10;;;;;;;20.33;40.99;100453.84;5125511;28;20050;-27
2022/04/25 05:25:25;;;;;;;0.20;0.20;;;;;;;20.33;40.97;100467.69;5124863;28;20123;-27
2022/04/25 05:27:53;;;;;;;0.20;0.20;;;;;;;20.34;41.15;100471.31;5127273;28;20438;-26
2022/04/25 05:30:21;;;;;;;0.15;0.15;;;;;;;20.32;41.24;100468.81;5120980;27;20078;-26
2022/04/25 05:32:49;;;;;;;0.13;0.13;;;;;;;20.33;40.93;100473.22;5117922;28;20042;-27
2022/04/25 05:35:15;;;;;;;0.10;0.10;;;;;;;20.33;41.14;100472.41;5122563;28;20071;-27
2022/04/25 05:37:42;;;;;;;0.10;0.10;;;;;;;20.33;41.10;100473.22;5126644;28;20147;-27
2022/04/25 05:40:08;;;;;;;0.20;0.20;;;;;;;20.34;41.10;100471.31;5118435;28;20062;-27
2022/04/25 05:42:34;;;;;;;0.20;0.20;;;;;;;20.33;40.68;100477.94;5123483;28;20074;-26
2022/04/25 05:45:01;;;;;;;0.20;0.20;;;;;;;20.32;41.03;100479.88;5125485;28;20445;-26
2022/04/25 05:47:26;;;;;;;0.20;0.20;;;;;;;20.32;40.94;100488.16;5100470;28;20079;-27
2022/04/25 05:52:38;;;;;;;0.17;0.17;;;;;;;20.33;41.17;100489.00;5104624;28;20043;-27
2022/04/25 05:55:04;;;;;;;0.20;0.20;;;;;;;20.32;40.89;100496.47;5123364;28;20047;-27
2022/04/25 05:57:30;;;;;;;0.20;0.20;;;;;;;20.32;41.20;100499.22;5118550;28;20180;-27
2022/04/25 05:59:56;;;;;;;0.20;0.20;;;;;;;20.33;41.07;100498.09;5123368;28;20100;-26
2022/04/25 06:02:21;;;;;;;0.20;0.20;;;;;;;20.33;41.11;100502.81;5124724;28;20043;-27
2022/04/25 06:04:47;;;;;;;0.20;0.20;;;;;;;20.33;41.12;100503.63;5120831;27;20051;-26
2022/04/25 06:07:13;;;;;;;0.20;0.20;;;;;;;20.32;40.82;100499.22;5107838;27;20047;-26
2022/04/25 06:09:39;;;;;;;0.20;0.20;;;;;;;20.33;40.99;100497.28;5118731;27;20235;-28
2022/04/25 06:12:05;;;;;;;0.20;0.20;;;;;;;20.33;41.09;100505.56;5124633;27;20074;-27
2022/04/25 06:14:31;;;;;;;0.20;0.20;;;;;;;20.33;40.97;100511.09;5119223;28;20432;-26
2022/04/25 06:16:59;;;;;;;0.20;0.20;;;;;;;20.32;40.79;100515.81;5117037;28;20112;-27
2022/04/25 06:19:25;;;;;;;0.10;0.10;;;;;;;20.32;40.97;100513.06;5119656;28;20050;-25
2022/04/25 06:21:51;;;;;;;0.20;0.20;;;;;;;20.33;41.16;100524.94;5122289;28;20047;-27
2022/04/25 06:24:17;;;;;;;0.20;0.20;;;;;;;20.33;41.01;100519.41;5119875;27;20421;-26
2022/04/25 06:26:43;;;;;;;0.20;0.20;;;;;;;20.33;41.17;100517.47;5119964;28;20151;-26
2022/04/25 06:29:08;;;;;;;0.20;0.20;;;;;;;20.33;41.16;100524.94;5121297;28;20490;-26
2022/04/25 06:31:35;;;;;;;0.20;0.20;;;;;;;20.34;41.09;100529.38;5114167;28;20086;-26
2022/04/25 06:34:00;;;;;;;0.10;0.10;;;;;;;20.32;40.86;100524.13;5122049;28;20066;-25
2022/04/25 06:36:26;;;;;;;0.20;0.20;;;;;;;20.32;41.08;100524.13;5116942;27;20153;-26
2022/04/25 06:38:52;;;;;;;0.20;0.20;;;;;;;20.33;40.97;100527.69;5117144;28;20048;-25
2022/04/25 06:41:18;;;;;;;0.20;0.20;;;;;;;20.32;41.05;100532.41;5121793;28;20039;-25
2022/04/25 06:43:44;;;;;;;0.20;0.20;;;;;;;20.33;40.80;100531.28;5121949;28;20251;-25
2022/04/25 06:46:09;;;;;;;0.20;0.20;;;;;;;20.33;41.03;100533.22;5117147;28;20096;-25
2022/04/25 06:48:35;;;;;;;0.20;0.20;;;;;;;20.33;41.11;100536.81;5116689;28;20070;-25
2022/04/25 06:51:01;;;;;;;0.20;0.20;;;;;;;20.32;41.16;100535.19;5124806;28;20049;-25
2022/04/25 06:53:27;;;;;;;0.10;0.10;;;;;;;20.33;40.97;100538.75;5098833;28;20362;-25
2022/04/25 06:55:53;;;;;;;0.10;0.10;;;;;;;20.32;41.10;100543.47;5118106;28;20077;-27
2022/04/25 06:58:18;;;;;;;0.10;0.10;;;;;;;20.33;41.19;100545.13;5118424;28;20404;-26
2022/04/25 07:00:46;;;;;;;0.20;0.20;;;;;;;20.33;40.97;100547.88;5113475;27;20051;-26
2022/04/25 07:03:12;;;;;;;0.13;0.13;;;;;;;20.32;41.11;100545.41;5101475;28;20043;-26
2022/04/25 07:05:37;;;;;;;0.20;0.20;;;;;;;20.33;40.88;100549.81;5119838;27;20337;-26
2022/04/25 07:08:04;;;;;;;0.20;0.20;;;;;;;20.32;40.93;100548.19;5113453;28;20049;-26
2022/04/25 07:10:29;;;;;;;0.15;0.15;;;;;;;20.33;41.25;100550.66;5098595;28;20137;-25
2022/04/25 07:12:56;;;;;;;0.10;0.10;;;;;;;20.32;41.20;100546.25;5113391;28;20058;-26
2022/04/25 07:15:23;;;;;;;0.10;0.10;;;;;;;20.32;40.74;100551.78;5119524;28;20074;-25
2022/04/25 07:17:54;;;;;;;0.20;0.20;;;;;;;20.32;41.05;100554.53;5111138;28;20472;-27
2022/04/25 07:20:21;;;;;;;0.10;0.10;;;;;;;20.33;40.97;100552.59;5116903;28;20093;-26
2022/04/25 07:28:49;;;;;;;0.20;0.20;;;;;;;20.32;41.14;100562.00;5104933;28;20066;-26
2022/04/25 07:31:03;;;;;;;0.10;0.10;;;;;;;20.32;41.09;100560.06;5100187;28;20489;-26
2022/04/25 07:33:30;;;;;;;0.20;0.20;;;;;;;20.32;41.02;100554.53;5118346;27;20043;-26
2022/04/25 07:35:56;;;;;;;0.20;0.20;;;;;;;20.32;41.05;100557.31;5122263;28;20112;-26
2022/04/25 07:38:22;;;;;;;0.20;0.20;;;;;;;20.33;41.20;100563.66;5125660;28;20092;-26
2022/04/25 07:40:47;;;;;;;0.20;0.20;;;;;;;20.31;40.85;100566.72;5117193;28;20051;-25
2022/04/25 07:43:14;;;;;;;0.20;0.20;;;;;;;20.32;41.18;100560.06;5119947;28;20107;-27
2022/04/25 07:45:40;;;;;;;0.13;0.13;;;;;;;20.32;41.21;100562.84;5122040;28;20129;-27
2022/04/25 07:48:05;;;;;;;0.15;0.15;;;;;;;20.32;41.20;100573.91;5121404;28;20058;-26
2022/04/25 07:50:31;;;;;;;0.20;0.20;;;;;;;20.32;41.05;100565.59;5116072;28;20047;-26
2022/04/25 07:52:57;;;;;;;0.20;0.20;;;;;;;20.33;41.00;100571.94;5120295;27;20035;-26
2022/04/25 07:55:22;;;;;;;0.20;0.20;;;;;;;20.32;41.21;100568.38;5118499;27;20047;-26
2022/04/25 07:57:48;;;;;;;0.20;0.20;;;;;;;20.32;41.16;100573.91;5114735;28;20047;-26
2022/04/25 08:00:14;;;;;;;0.20;0.20;;;;;;;20.33;41.12;100580.25;5115936;28;20040;-27
2022/04/25 08:02:40;;;;;;;0.20;0.20;;;;;;;20.33;41.02;100583.00;5109636;28;20134;-26
2022/04/25 08:05:06;;;;;;;0.10;0.10;;;;;;;20.33;41.31;100588.53;5117477;28;20046;-25
2022/04/25 08:07:31;;;;;;;0.17;0.17;;;;;;;20.32;41.37;100587.72;5114687;28;20456;-27
2022/04/25 08:09:57;;;;;;;0.20;0.20;;;;;;;20.34;41.08;100596.56;5105777;28;20153;-26
2022/04/25 08:17:59;;;;;;;0.13;0.13;;;;;;;20.33;41.35;100597.66;5094093;28;20838;-26
2022/04/25 08:20:28;;;;;;;0.20;0.20;;;;;;;20.30;41.07;100607.38;5109162;28;20423;-27
2022/04/25 08:22:55;;;;;;;0.13;0.13;;;;;;;20.33;41.20;100610.66;5116451;28;20196;-26
2022/04/25 08:25:20;;;;;;;0.20;0.20;;;;;;;20.34;41.13;100617.88;5114025;28;20070;-27
2022/04/25 08:27:46;;;;;;;0.20;0.20;;;;;;;20.33;41.02;100619.78;5112729;28;20058;-26
2022/04/25 08:30:12;;;;;;;0.20;0.20;;;;;;;20.33;40.87;100618.97;5112353;28;20082;-27
2022/04/25 08:32:38;;;;;;;0.20;0.20;;;;;;;20.32;41.17;100617.31;5092649;28;20194;-26
2022/04/25 08:35:04;;;;;;;0.20;0.20;;;;;;;20.33;40.94;100624.50;5113404;28;20135;-26
2022/04/25 08:37:30;;;;;;;0.10;0.10;;;;;;;20.33;40.97;100630.84;5109305;28;20350;-26
2022/04/25 08:40:03;;;;;;;0.17;0.17;;;;;;;20.33;40.88;100625.31;5098297;28;20481;-26
2022/04/25 08:42:31;;;;;;;0.20;0.20;;;;;;;20.33;41.10;100632.78;5095177;28;20134;-26
2022/04/25 08:45:11;;;;;;;0.20;0.20;;;;;;;20.32;41.24;100634.75;5113208;28;20509;-27
2022/04/25 08:47:44;;;;;;;0.10;0.10;;;;;;;20.32;41.29;100636.69;5114462;28;20177;-26
2022/04/25 08:50:10;;;;;;;0.20;0.20;;;;;;;20.32;41.21;100637.50;5111916;28;20129;-26
2022/04/25 08:52:35;;;;;;;0.10;0.10;;;;;;;20.32;41.17;100643.03;5117292;28;20096;-26
2022/04/25 08:55:02;;;;;;;0.10;0.10;;;;;;;20.31;41.25;100649.69;5118093;28;20417;-26
2022/04/25 08:57:29;;;;;;;0.20;0.20;;;;;;;20.33;41.04;100646.63;5115531;28;20501;-26
2022/04/25 08:59:57;;;;;;;0.20;0.20;;;;;;;20.32;41.03;100648.56;5120726;27;20573;-26
2022/04/25 09:02:22;;;;;;;0.20;0.20;;;;;;;20.32;41.25;100656.03;5110024;27;20127;-26
2022/04/25 09:04:49;;;;;;;0.20;0.20;;;;;;;20.32;41.02;100648.56;5111563;27;20127;-26
2022/04/25 09:07:16;;;;;;;0.20;0.20;;;;;;;20.31;41.36;100652.47;5117721;28;20405;-26
2022/04/25 09:09:42;;;;;;;0.17;0.17;;;;;;;20.34;41.21;100656.59;5122255;28;20083;-26
2022/04/25 09:12:09;;;;;;;0.20;0.20;;;;;;;20.33;41.30;100652.16;5119637;28;20181;-26
2022/04/25 09:14:36;;;;;;;0.10;0.10;;;;;;;20.33;41.15;100655.72;5121284;28;20047;-25
2022/04/25 09:17:03;;;;;;;0.20;0.20;;;;;;;20.32;40.88;100658.81;5122889;27;20134;-25
2022/04/25 09:19:30;;;;;;;0.20;0.20;;;;;;;20.32;41.12;100658.81;5118815;28;20071;-25
2022/04/25 09:21:56;;;;;;;0.10;0.10;;;;;;;20.33;41.11;100657.69;5101992;28;20050;-25
2022/04/25 09:24:28;;;;;;;0.17;0.17;;;;;;;20.32;41.08;100665.16;5123552;27;21242;-25
2022/04/25 09:27:13;;;;;;;0.20;0.20;;;;;;;20.33;41.11;100665.97;5117285;28;20067;-25
2022/04/25 09:29:39;;;;;;;0.10;0.10;;;;;;;20.32;41.07;100665.16;5098368;28;20510;-25
2022/04/25 09:32:06;;;;;;;0.20;0.20;;;;;;;20.33;41.08;100674.28;5105720;28;20070;-25
2022/04/25 09:35:04;;;;;;;0.20;0.20;;;;;;;20.33;41.10;100671.50;5098771;28;20137;-26
2022/04/25 09:37:18;;;;;;;0.10;0.10;;;;;;;20.33;41.20;100675.09;5095939;27;20137;-27
2022/04/25 09:39:44;;;;;;;0.10;0.10;;;;;;;20.34;41.19;100673.19;5113304;28;20126;-27
2022/04/25 09:42:10;;;;;;;0.20;0.20;;;;;;;20.32;41.21;100673.47;5074720;28;20081;-27
2022/04/25 09:44:56;;;;;;;0.20;0.20;;;;;;;20.32;41.16;100672.63;5106694;28;21056;-27
2022/04/25 09:47:28;;;;;;;0.20;0.20;;;;;;;20.33;41.11;100677.03;5072526;28;20134;-27
2022/04/25 09:50:03;;;;;;;0.20;0.20;;;;;;;20.34;41.22;100675.94;5104931;28;20147;-26
2022/04/25 09:52:31;;;;;;;0.20;0.20;;;;;;;20.33;41.36;100683.38;5088377;28;20058;-26
2022/04/25 09:55:09;;;;;;;0.20;0.20;;;;;;;20.31;41.01;100677.34;5109082;27;20143;-27
2022/04/25 09:57:35;;;;;;;0.20;0.20;;;;;;;20.32;41.35;100681.75;5113085;27;20126;-26
2022/04/25 10:00:01;;;;;;;0.20;0.20;;;;;;;20.33;41.30;100683.38;5109837;27;20789;-26
2022/04/25 10:02:29;;;;;;;0.15;0.15;;;;;;;20.33;41.33;100679.81;5108192;28;20436;-27
2022/04/25 10:04:55;;;;;;;0.20;0.20;;;;;;;20.33;40.99;100688.09;5104406;28;20051;-27
2022/04/25 10:07:22;;;;;;;0.20;0.20;;;;;;;20.33;41.09;100685.34;5103961;28;20150;-27
2022/04/25 10:09:49;;;;;;;0.20;0.20;;;;;;;20.33;41.21;100679.81;5104162;28;20194;-26
2022/04/25 10:12:15;;;;;;;0.20;0.20;;;;;;;20.32;41.27;100683.69;5076049;28;20122;-26
2022/04/25 10:14:41;;;;;;;0.20;0.20;;;;;;;20.33;41.05;100694.44;5111225;28;20133;-26
2022/04/25 10:17:07;;;;;;;0.20;0.20;;;;;;;20.33;40.92;100688.91;5108681;27;20047;-27
2022/04/25 10:19:32;;;;;;;0.20;0.20;;;;;;;20.33;41.34;100685.34;5108488;28;20378;-27
2022/04/25 10:21:59;;;;;;;0.20;0.20;;;;;;;20.33;41.22;100685.34;5115366;28;20067;-26
2022/04/25 10:24:25;;;;;;;0.10;0.10;;;;;;;20.34;41.30;100695.31;5115342;28;20048;-26
2022/04/25 10:26:52;;;;;;;0.20;0.20;;;;;;;20.30;41.41;100695.06;5116952;28;20062;-26
2022/04/25 10:29:23;;;;;;;0.10;0.10;;;;;;;20.34;41.52;100692.53;5097083;28;20197;-27
2022/04/25 10:31:49;;;;;;;0.10;0.10;;;;;;;20.36;41.42;100693.06;5115011;28;20137;-26
2022/04/25 10:34:15;;;;;;;0.20;0.20;;;;;;;20.36;41.32;100695.81;5116585;28;20096;-26
2022/04/25 10:36:43;;;;;;;0.20;0.20;;;;;;;20.35;41.18;100700.53;5113017;28;20258;-26
2022/04/25 10:39:27;;;;;;;0.15;0.15;;;;;;;20.35;41.33;100697.75;5115777;28;20137;-25
2022/04/25 10:49:58;;;;;;;0.20;0.20;;;;;;;20.39;41.47;100695.25;5153615;27;20124;-28
2022/04/25 10:55:19;;;;;;;0.20;0.20;;;;;;;20.40;41.22;100700.47;5150472;27;20132;-30
2022/04/25 11:03:23;;;;;;;0.20;0.20;;;;;;;20.53;41.54;100693.44;5153863;27;20272;-31
2022/04/25 11:05:51;;;;;;;0.20;0.20;;;;;;;20.58;41.60;100692.53;5115813;27;20038;-31
2022/04/25 11:14:01;;;;;;;0.20;0.20;;;;;;;20.57;41.21;100696.44;5153997;27;20708;-29
2022/04/25 11:16:28;;;;;;;0.20;0.20;;;;;;;20.58;41.42;100692.53;5137636;27;20549;-31
2022/04/25 11:19:22;;;;;;;0.20;0.20;;;;;;;20.59;41.34;100699.72;5149899;27;20042;-31
2022/04/25 11:21:50;;;;;;;0.20;0.20;;;;;;;20.59;41.34;100708.00;5142189;27;20132;-30
2022/04/25 11:24:33;;;;;;;0.10;0.10;;;;;;;20.61;41.31;100708.56;5153216;27;20039;-30
2022/04/25 11:27:01;;;;;;;0.20;0.20;;;;;;;20.62;41.39;100711.03;5150399;27;20141;-31
2022/04/25 11:29:27;;;;;;;0.10;0.10;;;;;;;20.62;41.07;100699.13;5146230;27;20125;-30
2022/04/25 11:32:35;;;;;;;0.20;0.20;;;;;;;20.63;41.02;100712.66;5139956;27;20043;-30
2022/04/25 11:35:02;;;;;;;0.20;0.20;;;;;;;20.64;40.95;100710.72;5142425;27;20078;-30
2022/04/25 11:37:29;;;;;;;0.20;0.20;;;;;;;20.65;41.00;100715.16;5143300;27;20154;-32
2022/04/25 11:39:57;;;;;;;0.20;0.20;;;;;;;20.66;41.16;100714.03;5113448;27;20126;-31
2022/04/25 11:42:26;;;;;;;0.10;0.10;;;;;;;20.68;41.36;100715.38;5103835;27;20090;-32
2022/04/25 11:44:52;;;;;;;0.13;0.13;;;;;;;20.68;40.93;100715.38;5139439;27;20266;-32
2022/04/25 11:47:19;;;;;;;0.10;0.10;;;;;;;20.69;40.96;100713.44;5107217;27;20098;-27
2022/04/25 11:49:44;;;;;;;0.10;0.10;;;;;;;20.70;40.96;100715.09;5119976;27;20134;-29
2022/04/25 11:52:15;;;;;;;0.10;0.10;;;;;;;20.71;41.07;100711.19;5135333;27;20046;-30
2022/04/25 11:54:41;;;;;;;0.20;0.20;;;;;;;20.71;41.10;100709.25;5136008;27;20545;-31
2022/04/25 11:57:07;;;;;;;0.20;0.20;;;;;;;20.75;41.04;100720.53;5131766;27;20130;-30
2022/04/25 11:59:33;;;;;;;0.10;0.10;;;;;;;20.74;41.08;100714.19;5133516;27;20065;-30
2022/04/25 12:01:59;;;;;;;0.20;0.20;;;;;;;20.74;40.97;100721.66;5136489;27;20134;-30
2022/04/25 12:04:29;;;;;;;0.20;0.20;;;;;;;20.76;40.87;100719.41;5134251;27;20050;-30
2022/04/25 12:07:03;;;;;;;0.20;0.20;;;;;;;20.76;40.97;100719.41;5101451;27;20209;-30
2022/04/25 12:17:52;;;;;;;0.20;0.20;;;;;;;20.77;41.00;100721.91;5139552;27;20162;-28